CheckWX is a tool to help pilots better visualize weather data.  It is not intended as a substitute for an official pre-flight weather briefing.

02:15:36 UTC

KILG TAF
New Castle Airport
Wilmington, Delaware, USA
KILG 262320Z 2700/2724 28008KT P6SM BKN050 FM270100 27007KT P6SM FEW050 FEW100 FM270900 25006KT P6SM BKN100 FM271500 27010G17KT P6SM SCT060 BKN090 FM271800 28011G18KT P6SM SCT040 OVC050 FM272200 29008KT P6SM BKN050

Jan-27@
00:00 UTC

Jan-27 @ 00:00 UTC

Jan-27@
01:00 UTC

Jan-27 @ 01:00 UTC

KILG 262320Z 2700/2724 28008KT P6SM BKN050

Expired

Wind
  • 280° at 8 KTS
Cloud Levels
  • Broken at 5,000' AGL

Jan-27@
01:00 UTC

Jan-27 @ 01:00 UTC

Jan-27@
09:00 UTC

Jan-27 @ 09:00 UTC

FM270100 27007KT P6SM FEW050 FEW100

From

From Standard forecast or significant change

Wind
  • 270° at 7 KTS
Cloud Levels
  • Few at 5,000' AGL
  • Few at 10,000' AGL

Jan-27@
09:00 UTC

Jan-27 @ 09:00 UTC

Jan-27@
15:00 UTC

Jan-27 @ 15:00 UTC

FM270900 25006KT P6SM BKN100

From

From Standard forecast or significant change

Wind
  • 250° at 6 KTS
Cloud Levels
  • Broken at 10,000' AGL

Jan-27@
15:00 UTC

Jan-27 @ 15:00 UTC

Jan-27@
18:00 UTC

Jan-27 @ 18:00 UTC

FM271500 27010G17KT P6SM SCT060 BKN090

From

From Standard forecast or significant change

Wind
  • 270° at 10 KTS
  • {Gusting to 17 KTS
Cloud Levels
  • Scattered at 6,000' AGL
  • Broken at 9,000' AGL

Jan-27@
18:00 UTC

Jan-27 @ 18:00 UTC

Jan-27@
22:00 UTC

Jan-27 @ 22:00 UTC

FM271800 28011G18KT P6SM SCT040 OVC050

From

From Standard forecast or significant change

Wind
  • 280° at 11 KTS
  • {Gusting to 18 KTS
Cloud Levels
  • Scattered at 4,000' AGL
  • Overcast at 5,000' AGL

Jan-27@
22:00 UTC

Jan-27 @ 22:00 UTC

Jan-28@
00:00 UTC

Jan-28 @ 00:00 UTC

FM272200 29008KT P6SM BKN050

From

From Standard forecast or significant change

Wind
  • 290° at 8 KTS
Cloud Levels
  • Broken at 5,000' AGL